Eastport Municipal Airport (EPM)
Eastport, ME
Field Elevation: 45
Lat: 44°54.60N  Long: 67°00.76W
CTAF/Unicom Freq: 122.8000
   
     For Weather-by-Phone, call 207-853-0682
Weather Advisories
2019-08-21   18:10 Z
Altimeter 29.97" Hg
Wind 180° @ 10 KT
Gusts 14 KT
Visibility 10 SM
Temperature 23° C (73° F)
Dewpoint 17° C (63° F)
Relative Humidity 72%
Density Altitude --
Condensation Altitude 2,800 feet
Wind and Runways
Indicated Runway = 15
Headwind = 9 kt
Crosswind = 5 kt
History
 
 
 
More Info
NOAA Forecast
 
 
About Us
Belfort Instrument
 
 
FAA Disclaimer: The data displayed is for advisory purposes only and is not to be used for flight planning or operations. For official data, please call 207-853-0682 to hear the current automated AWOS voice message.
  METAR EPM 211810Z AUTO 18010G14KT 10 SM 23/17 A2997